createdAt,value
2022-09-15T00:00:12.611Z,19.45
2022-09-15T00:03:15.903Z,19.36
2022-09-15T00:06:20.213Z,19.39
2022-09-15T00:09:23.651Z,19.39
2022-09-15T00:12:27.746Z,19.40
2022-09-15T00:15:31.287Z,19.38
2022-09-15T00:18:36.372Z,19.36
2022-09-15T00:21:41.605Z,19.19
2022-09-15T00:24:44.573Z,19.26
2022-09-15T00:27:48.548Z,19.23
2022-09-15T00:30:54.347Z,19.22
2022-09-15T00:33:59.668Z,19.17
2022-09-15T00:37:02.639Z,19.15
2022-09-15T00:40:06.401Z,19.14
2022-09-15T00:43:10.989Z,19.08
2022-09-15T00:46:16.485Z,19.01
2022-09-15T00:49:21.606Z,18.94
2022-09-15T00:52:27.487Z,18.89
2022-09-15T00:55:47.896Z,18.85
2022-09-15T00:58:57.048Z,18.79
2022-09-15T01:02:15.881Z,18.75
2022-09-15T01:05:23.400Z,18.73
2022-09-15T01:08:36.690Z,18.72
2022-09-15T01:11:40.266Z,18.74
2022-09-15T01:14:43.190Z,18.73
2022-09-15T01:18:04.063Z,18.73
2022-09-15T01:21:06.999Z,18.70
2022-09-15T01:24:34.843Z,18.69
2022-09-15T01:28:15.214Z,18.68
2022-09-15T01:31:25.058Z,18.68
2022-09-15T01:34:31.243Z,18.70
2022-09-15T01:37:38.111Z,18.66
2022-09-15T01:41:25.395Z,18.60
2022-09-15T01:44:36.498Z,18.69
2022-09-15T01:47:39.862Z,18.69
2022-09-15T01:50:46.489Z,18.71
2022-09-15T01:53:49.878Z,18.68
2022-09-15T01:56:53.087Z,18.64
2022-09-15T01:59:56.529Z,18.62
2022-09-15T02:03:04.743Z,18.60
2022-09-15T02:06:14.674Z,18.68
2022-09-15T02:09:22.745Z,18.71
2022-09-15T02:12:51.034Z,18.70
2022-09-15T02:15:57.923Z,18.72
2022-09-15T02:19:11.132Z,18.73
2022-09-15T02:22:17.719Z,18.70
2022-09-15T02:25:33.178Z,18.67
2022-09-15T02:28:38.609Z,18.64
2022-09-15T02:31:42.497Z,18.62
2022-09-15T02:34:47.860Z,18.57
2022-09-15T02:37:52.013Z,18.56
2022-09-15T02:40:54.656Z,18.48
2022-09-15T02:43:57.678Z,18.49
2022-09-15T02:47:02.002Z,18.49
2022-09-15T02:50:05.973Z,18.47
2022-09-15T02:53:09.155Z,18.44
2022-09-15T02:56:13.001Z,18.38
2022-09-15T02:59:15.831Z,18.36
2022-09-15T03:02:20.557Z,18.36
2022-09-15T03:05:26.385Z,18.32
2022-09-15T03:08:29.578Z,18.35
2022-09-15T03:11:32.843Z,18.33
2022-09-15T03:14:36.059Z,18.31
2022-09-15T03:17:41.697Z,18.30
2022-09-15T03:20:44.717Z,18.31
2022-09-15T03:23:48.154Z,18.28
2022-09-15T03:26:51.591Z,18.27
2022-09-15T03:29:54.573Z,18.27
2022-09-15T03:32:57.721Z,18.29
2022-09-15T03:36:01.407Z,18.29
2022-09-15T03:39:04.939Z,18.23
2022-09-15T03:42:07.884Z,18.29
2022-09-15T03:45:10.957Z,18.36
2022-09-15T03:48:13.726Z,18.39
2022-09-15T03:51:17.180Z,18.42
2022-09-15T03:54:20.338Z,18.40
2022-09-15T03:57:23.537Z,18.40
2022-09-15T04:00:26.399Z,18.42
2022-09-15T04:03:31.735Z,18.44
2022-09-15T04:06:35.658Z,18.40
2022-09-15T04:09:38.824Z,18.41
2022-09-15T04:12:42.086Z,18.44
2022-09-15T04:15:45.165Z,18.47
2022-09-15T04:18:47.941Z,18.46
2022-09-15T04:21:50.822Z,18.46
2022-09-15T04:24:53.826Z,18.39
2022-09-15T04:27:57.803Z,18.35
2022-09-15T04:31:05.582Z,18.34
2022-09-15T04:34:09.460Z,18.32
2022-09-15T04:37:12.535Z,18.29
2022-09-15T04:40:16.069Z,18.32
2022-09-15T04:43:18.989Z,18.34
2022-09-15T04:46:22.117Z,18.35
2022-09-15T04:49:25.326Z,18.36
2022-09-15T04:52:28.637Z,18.08
2022-09-15T04:55:32.332Z,18.34
2022-09-15T04:58:37.725Z,18.30
2022-09-15T05:01:40.569Z,18.28
2022-09-15T05:04:44.160Z,18.25
2022-09-15T05:07:50.234Z,18.44
2022-09-15T05:10:53.468Z,18.78
2022-09-15T05:13:56.887Z,19.01
2022-09-15T05:17:00.308Z,19.05
2022-09-15T05:20:04.976Z,18.98
2022-09-15T05:23:08.054Z,18.93
2022-09-15T05:26:16.189Z,18.87
2022-09-15T05:29:20.487Z,18.77
2022-09-15T05:32:23.387Z,18.78
2022-09-15T05:35:26.926Z,18.80
2022-09-15T05:38:31.480Z,18.81
2022-09-15T05:41:34.752Z,18.81
2022-09-15T05:44:37.990Z,18.83
2022-09-15T05:47:41.142Z,18.84
2022-09-15T05:50:49.359Z,18.84
2022-09-15T05:53:52.467Z,18.83
2022-09-15T05:56:55.543Z,18.85
2022-09-15T05:59:59.097Z,18.84
2022-09-15T06:03:02.142Z,18.86
2022-09-15T06:06:06.397Z,18.88
2022-09-15T06:09:09.569Z,18.91
2022-09-15T06:12:12.765Z,18.96
2022-09-15T06:15:15.979Z,19.03
2022-09-15T06:18:19.299Z,19.06
2022-09-15T06:21:26.818Z,19.10
2022-09-15T06:24:29.879Z,19.16
2022-09-15T06:27:33.083Z,19.22
2022-09-15T06:30:39.701Z,19.17
2022-09-15T06:33:44.651Z,19.31
2022-09-15T06:36:47.809Z,19.36
2022-09-15T06:39:51.210Z,19.39
2022-09-15T06:42:57.668Z,19.37
2022-09-15T06:46:09.813Z,19.43
2022-09-15T06:49:12.872Z,19.49
2022-09-15T06:52:15.634Z,19.57
2022-09-15T06:55:18.608Z,19.66
2022-09-15T06:58:21.303Z,19.73
2022-09-15T07:01:29.567Z,19.71
2022-09-15T07:04:34.723Z,19.73
2022-09-15T07:07:37.774Z,19.80
2022-09-15T07:10:44.168Z,19.86
2022-09-15T07:13:50.813Z,19.91
2022-09-15T07:16:54.051Z,19.93
2022-09-15T07:19:57.520Z,20.01
2022-09-15T07:23:00.098Z,20.07
2022-09-15T07:26:08.453Z,20.18
2022-09-15T07:29:12.299Z,20.26
2022-09-15T07:32:15.309Z,20.41
2022-09-15T07:35:18.777Z,20.53
2022-09-15T07:38:22.208Z,20.71
2022-09-15T07:41:29.382Z,21.05
2022-09-15T07:44:32.602Z,21.46
2022-09-15T07:47:35.671Z,21.85
2022-09-15T07:50:39.119Z,22.29
2022-09-15T07:53:43.635Z,22.50
2022-09-15T07:56:47.426Z,22.73
2022-09-15T07:59:50.303Z,22.95
2022-09-15T08:02:53.810Z,23.17
2022-09-15T08:05:58.832Z,23.28
2022-09-15T08:09:02.350Z,23.34
2022-09-15T08:12:06.819Z,23.51
2022-09-15T08:15:09.959Z,23.66
2022-09-15T08:18:13.195Z,23.56
2022-09-15T08:21:21.006Z,23.84
2022-09-15T08:24:24.630Z,23.83
2022-09-15T08:27:27.851Z,24.05
2022-09-15T08:30:31.238Z,23.89
2022-09-15T08:33:34.781Z,24.24
2022-09-15T08:36:38.817Z,24.22
2022-09-15T08:39:41.589Z,24.31
2022-09-15T08:42:47.045Z,24.11
2022-09-15T08:45:56.275Z,23.90
2022-09-15T08:49:05.672Z,23.78
2022-09-15T08:52:17.071Z,23.88
2022-09-15T08:55:50.283Z,24.61
2022-09-15T08:58:52.955Z,24.84
2022-09-15T09:02:39.352Z,25.31
2022-09-15T09:05:45.630Z,25.54
2022-09-15T09:08:56.115Z,25.84
2022-09-15T09:12:29.332Z,26.38
2022-09-15T09:15:54.153Z,26.60
2022-09-15T09:19:23.755Z,26.87
2022-09-15T09:22:33.163Z,26.95
2022-09-15T09:25:36.775Z,27.22
2022-09-15T09:28:50.240Z,27.39
2022-09-15T09:31:53.637Z,27.74
2022-09-15T09:35:09.110Z,27.96
2022-09-15T09:38:15.014Z,27.76
2022-09-15T09:41:23.339Z,28.22
2022-09-15T09:44:31.888Z,28.43
2022-09-15T09:47:36.543Z,28.47
2022-09-15T09:50:45.344Z,28.75
2022-09-15T09:53:53.920Z,28.99
2022-09-15T09:57:17.668Z,29.37
2022-09-15T10:00:35.560Z,30.01
2022-09-15T10:03:38.898Z,29.24
2022-09-15T10:06:41.795Z,29.38
2022-09-15T10:09:50.583Z,29.44
2022-09-15T10:12:57.021Z,28.88
2022-09-15T10:16:01.588Z,28.20
2022-09-15T10:19:04.543Z,27.74
2022-09-15T10:22:07.725Z,27.56
2022-09-15T10:25:19.889Z,27.36
2022-09-15T10:28:25.981Z,26.98
2022-09-15T10:31:32.027Z,27.11
2022-09-15T10:34:36.419Z,27.22
2022-09-15T10:38:23.482Z,28.09
2022-09-15T10:41:31.479Z,28.99
2022-09-15T10:44:47.167Z,29.86
2022-09-15T10:48:07.141Z,29.92
2022-09-15T10:51:16.510Z,29.14
2022-09-15T10:54:59.745Z,28.97
2022-09-15T10:58:11.590Z,28.59
2022-09-15T11:01:30.380Z,27.98
2022-09-15T11:04:45.582Z,27.55
2022-09-15T11:08:27.841Z,27.15
2022-09-15T11:11:39.209Z,26.95
2022-09-15T11:14:45.152Z,26.97
2022-09-15T11:18:29.053Z,26.87
2022-09-15T11:21:36.831Z,26.98
2022-09-15T11:24:48.557Z,26.95
2022-09-15T11:28:01.580Z,26.81
2022-09-15T11:31:19.646Z,26.57
2022-09-15T11:34:33.661Z,26.33
2022-09-15T11:37:40.084Z,26.08
2022-09-15T11:40:48.977Z,25.90
2022-09-15T11:43:55.225Z,25.78
2022-09-15T11:47:30.766Z,25.62
2022-09-15T11:50:39.494Z,25.54
2022-09-15T11:54:06.408Z,25.41
2022-09-15T11:57:16.999Z,25.25
2022-09-15T12:00:21.247Z,25.19
2022-09-15T12:03:29.164Z,25.12
2022-09-15T12:07:14.892Z,25.11
2022-09-15T12:10:22.712Z,24.87
2022-09-15T12:13:26.405Z,24.89
2022-09-15T12:16:30.482Z,24.93
2022-09-15T12:19:33.575Z,24.88
2022-09-15T12:22:59.316Z,24.93
2022-09-15T12:26:18.349Z,24.98
2022-09-15T12:29:27.431Z,24.93
2022-09-15T12:32:33.215Z,24.71
2022-09-15T12:35:36.665Z,24.56
2022-09-15T12:38:39.660Z,24.50
2022-09-15T12:42:06.738Z,24.46
2022-09-15T12:45:33.370Z,24.36
2022-09-15T12:48:36.711Z,24.29
2022-09-15T12:51:39.340Z,24.26
2022-09-15T12:54:43.628Z,24.23
2022-09-15T12:57:55.188Z,24.16
2022-09-15T13:01:24.553Z,24.15
2022-09-15T13:04:51.521Z,24.11
2022-09-15T13:07:58.266Z,24.02
2022-09-15T13:11:03.854Z,23.88
2022-09-15T13:14:10.840Z,23.75
2022-09-15T13:17:17.046Z,23.59
2022-09-15T13:20:26.166Z,23.33
2022-09-15T13:23:35.280Z,23.11
2022-09-15T13:26:38.470Z,22.82
2022-09-15T13:29:56.361Z,22.56
2022-09-15T13:41:20.837Z,20.95
2022-09-15T13:44:42.078Z,20.46
2022-09-15T13:47:55.306Z,20.32
2022-09-15T13:51:00.887Z,20.16
2022-09-15T13:54:06.893Z,20.07
2022-09-15T13:57:09.481Z,20.09
2022-09-15T14:00:26.880Z,20.04
2022-09-15T14:03:55.353Z,20.03
2022-09-15T14:07:01.075Z,19.93
2022-09-15T14:10:04.894Z,19.90
2022-09-15T14:13:14.298Z,19.94
2022-09-15T14:16:33.969Z,19.95
2022-09-15T14:19:38.390Z,19.91
2022-09-15T14:22:41.377Z,19.78
2022-09-15T14:25:45.912Z,19.70
2022-09-15T14:28:50.388Z,19.78
2022-09-15T14:31:53.428Z,19.71
2022-09-15T14:34:58.690Z,19.68
2022-09-15T14:38:01.486Z,19.74
2022-09-15T14:41:05.435Z,19.67
2022-09-15T14:45:55.626Z,19.63
2022-09-15T14:47:43.455Z,19.62
2022-09-15T14:51:00.502Z,19.66
2022-09-15T14:54:03.977Z,19.60
2022-09-15T14:57:06.703Z,19.60
2022-09-15T15:00:15.620Z,19.59
2022-09-15T15:03:50.794Z,19.61
2022-09-15T15:07:22.799Z,19.58
2022-09-15T15:10:32.175Z,19.56
2022-09-15T15:13:42.444Z,19.58
2022-09-15T15:17:05.902Z,19.58
2022-09-15T15:20:09.195Z,19.72
2022-09-15T15:23:26.287Z,19.75
2022-09-15T15:26:37.811Z,19.62
2022-09-15T15:29:45.397Z,19.47
2022-09-15T15:32:48.320Z,19.37
2022-09-15T15:36:04.491Z,19.29
2022-09-15T15:39:17.273Z,19.28
2022-09-15T15:42:20.688Z,19.16
2022-09-15T15:45:26.455Z,19.44
2022-09-15T15:48:35.271Z,19.65
2022-09-15T15:51:40.968Z,19.83
2022-09-15T15:54:43.745Z,19.92
2022-09-15T15:57:54.163Z,19.61
2022-09-15T16:00:57.783Z,19.39
2022-09-15T16:04:00.746Z,19.24
2022-09-15T16:07:03.985Z,19.07
2022-09-15T16:10:08.323Z,19.07
2022-09-15T16:13:16.035Z,19.00
2022-09-15T16:16:24.036Z,18.96
2022-09-15T16:19:26.632Z,18.95
2022-09-15T16:22:29.614Z,18.92
2022-09-15T16:25:40.114Z,18.85
2022-09-15T16:28:43.200Z,18.86
2022-09-15T16:31:45.805Z,18.85
2022-09-15T16:34:53.925Z,18.75
2022-09-15T16:37:56.416Z,18.79
2022-09-15T16:41:00.381Z,18.75
2022-09-15T16:44:04.087Z,18.72
2022-09-15T16:47:07.182Z,18.66
2022-09-15T16:50:11.490Z,18.72
2022-09-15T16:53:18.624Z,18.69
2022-09-15T16:56:21.099Z,18.53
2022-09-15T16:59:24.793Z,18.60
2022-09-15T17:02:27.368Z,18.60
2022-09-15T17:05:50.279Z,18.58
2022-09-15T17:08:53.388Z,18.50
2022-09-15T17:11:56.486Z,18.47
2022-09-15T17:14:58.993Z,18.46
2022-09-15T17:18:01.951Z,18.23
2022-09-15T17:21:05.510Z,18.36
2022-09-15T17:24:09.083Z,18.32
2022-09-15T17:27:11.628Z,18.29
2022-09-15T17:30:14.605Z,18.28
2022-09-15T17:33:18.329Z,18.27
2022-09-15T17:36:27.829Z,18.22
2022-09-15T17:39:30.418Z,18.15
2022-09-15T17:42:33.201Z,18.07
2022-09-15T17:45:36.612Z,18.06
2022-09-15T17:48:39.685Z,18.06
2022-09-15T17:51:42.242Z,18.02
2022-09-15T17:54:45.162Z,17.96
2022-09-15T17:57:48.898Z,17.92
2022-09-15T18:00:53.141Z,17.94
2022-09-15T18:03:56.020Z,17.88
2022-09-15T18:06:58.504Z,17.86
2022-09-15T18:10:01.527Z,17.85
2022-09-15T18:13:05.270Z,17.85
2022-09-15T18:16:11.959Z,17.82
2022-09-15T18:19:14.589Z,17.79
2022-09-15T18:22:17.413Z,17.77
2022-09-15T18:25:28.177Z,17.74
2022-09-15T18:28:30.954Z,17.72
2022-09-15T18:31:33.497Z,17.70
2022-09-15T18:34:36.377Z,17.70
2022-09-15T18:37:39.111Z,17.67
2022-09-15T18:40:46.737Z,17.69
2022-09-15T18:43:49.350Z,17.68
2022-09-15T18:46:52.538Z,17.68
2022-09-15T18:49:55.104Z,17.60
2022-09-15T18:52:58.117Z,17.63
2022-09-15T18:56:00.620Z,17.59
2022-09-15T18:59:03.599Z,17.55
2022-09-15T19:02:06.443Z,17.53
2022-09-15T19:05:15.373Z,17.55
2022-09-15T19:08:18.005Z,17.57
2022-09-15T19:11:20.853Z,17.53
2022-09-15T19:14:23.450Z,17.51
2022-09-15T19:17:26.321Z,17.50
2022-09-15T19:20:29.968Z,17.25
2022-09-15T19:23:32.835Z,17.56
2022-09-15T19:26:35.864Z,17.48
2022-09-15T19:29:38.994Z,17.56
2022-09-15T19:32:42.983Z,17.54
2022-09-15T19:35:46.135Z,17.56
2022-09-15T19:38:48.745Z,17.54
2022-09-15T19:41:51.763Z,17.48
2022-09-15T19:44:54.382Z,17.51
2022-09-15T19:47:58.424Z,17.48
2022-09-15T19:51:01.305Z,17.51
2022-09-15T19:54:04.559Z,17.43
2022-09-15T19:57:07.087Z,17.46
2022-09-15T20:00:12.067Z,17.45
2022-09-15T20:03:15.417Z,17.44
2022-09-15T20:06:17.855Z,17.40
2022-09-15T20:09:21.142Z,17.40
2022-09-15T20:12:24.807Z,17.43
2022-09-15T20:15:27.618Z,17.43
2022-09-15T20:18:36.584Z,17.42
2022-09-15T20:21:55.587Z,17.41
2022-09-15T20:24:58.156Z,17.34
2022-09-15T20:28:00.975Z,17.33
2022-09-15T20:31:24.250Z,17.32
2022-09-15T20:34:27.069Z,17.32
2022-09-15T20:37:32.078Z,17.35
2022-09-15T20:40:37.505Z,17.34
2022-09-15T20:43:41.595Z,17.36
2022-09-15T20:46:44.791Z,17.34
2022-09-15T20:49:47.429Z,17.28
2022-09-15T20:52:50.296Z,17.35
2022-09-15T20:55:52.798Z,17.27
2022-09-15T20:58:59.929Z,17.26
2022-09-15T21:02:04.781Z,17.13
2022-09-15T21:05:08.791Z,17.22
2022-09-15T21:08:12.036Z,17.11
2022-09-15T21:11:16.279Z,17.22
2022-09-15T21:14:18.879Z,17.21
2022-09-15T21:17:23.171Z,17.22
2022-09-15T21:20:27.265Z,17.24
2022-09-15T21:23:37.875Z,17.23
2022-09-15T21:27:00.185Z,17.22
2022-09-15T21:30:03.433Z,17.21
2022-09-15T21:33:06.476Z,17.21
2022-09-15T21:36:10.452Z,17.24
2022-09-15T21:39:13.012Z,17.23
2022-09-15T21:42:15.972Z,17.17
2022-09-15T21:45:18.457Z,17.18
2022-09-15T21:48:21.282Z,17.15
2022-09-15T21:51:25.442Z,17.16
2022-09-15T21:54:28.346Z,17.09
2022-09-15T21:57:30.902Z,17.09
2022-09-15T22:00:36.740Z,17.00
2022-09-15T22:03:43.092Z,17.05
2022-09-15T22:06:46.914Z,16.96
2022-09-15T22:09:49.873Z,16.99
2022-09-15T22:12:52.863Z,16.98
2022-09-15T22:16:07.776Z,16.95
2022-09-15T22:19:11.729Z,16.90
2022-09-15T22:22:14.451Z,16.90
2022-09-15T22:25:21.689Z,16.90
2022-09-15T22:28:24.828Z,16.91
2022-09-15T22:31:30.767Z,16.86
2022-09-15T22:34:33.697Z,16.79
2022-09-15T22:37:36.326Z,16.83
2022-09-15T22:40:39.224Z,16.80
2022-09-15T22:43:43.565Z,16.74
2022-09-15T22:46:46.583Z,16.73
2022-09-15T22:49:49.081Z,16.70
2022-09-15T22:52:52.301Z,16.69
2022-09-15T22:56:06.879Z,16.66
2022-09-15T22:59:09.775Z,16.67
2022-09-15T23:02:14.450Z,16.64
2022-09-15T23:05:17.337Z,16.63
2022-09-15T23:08:19.802Z,16.59
2022-09-15T23:11:23.096Z,16.59
2022-09-15T23:14:25.671Z,16.59
2022-09-15T23:17:28.411Z,16.58
2022-09-15T23:20:31.082Z,16.61
2022-09-15T23:23:35.617Z,16.65
2022-09-15T23:26:38.198Z,16.65
2022-09-15T23:29:40.924Z,16.64
2022-09-15T23:32:43.604Z,16.63
2022-09-15T23:35:46.709Z,16.64
2022-09-15T23:38:49.958Z,16.65
2022-09-15T23:41:53.025Z,16.67
2022-09-15T23:44:55.523Z,16.61
2022-09-15T23:47:58.337Z,16.60
2022-09-15T23:51:01.143Z,16.63
2022-09-15T23:54:04.746Z,16.66
2022-09-15T23:57:08.831Z,16.65
